sensor_id;sensor_type;location;lat;lon;timestamp;P1;durP1;ratioP1;P2;durP2;ratioP2
37971;SDS011;23794;48.234;8.344;2023-11-18T00:02:25;2.95;;;1.98;;
37971;SDS011;23794;48.234;8.344;2023-11-18T00:04:52;4.22;;;2.55;;
37971;SDS011;23794;48.234;8.344;2023-11-18T00:07:19;7.07;;;4.80;;
37971;SDS011;23794;48.234;8.344;2023-11-18T00:09:46;6.80;;;4.78;;
37971;SDS011;23794;48.234;8.344;2023-11-18T00:12:13;6.25;;;4.38;;
37971;SDS011;23794;48.234;8.344;2023-11-18T00:14:40;15.82;;;6.82;;
37971;SDS011;23794;48.234;8.344;2023-11-18T00:17:09;15.05;;;6.13;;
37971;SDS011;23794;48.234;8.344;2023-11-18T00:19:36;36.08;;;8.95;;
37971;SDS011;23794;48.234;8.344;2023-11-18T00:22:03;140.07;;;14.65;;
37971;SDS011;23794;48.234;8.344;2023-11-18T00:24:30;242.40;;;16.27;;
37971;SDS011;23794;48.234;8.344;2023-11-18T00:27:01;87.85;;;9.07;;
37971;SDS011;23794;48.234;8.344;2023-11-18T00:29:35;107.93;;;11.95;;
37971;SDS011;23794;48.234;8.344;2023-11-18T00:32:04;39.75;;;5.85;;
37971;SDS011;23794;48.234;8.344;2023-11-18T00:34:32;4.97;;;2.95;;
37971;SDS011;23794;48.234;8.344;2023-11-18T00:36:59;3.30;;;1.83;;
37971;SDS011;23794;48.234;8.344;2023-11-18T00:39:26;2.80;;;2.25;;
37971;SDS011;23794;48.234;8.344;2023-11-18T00:41:53;2.88;;;1.90;;
37971;SDS011;23794;48.234;8.344;2023-11-18T00:44:22;5.40;;;2.90;;
37971;SDS011;23794;48.234;8.344;2023-11-18T00:46:49;5.57;;;2.88;;
37971;SDS011;23794;48.234;8.344;2023-11-18T00:49:17;3.13;;;2.13;;
37971;SDS011;23794;48.234;8.344;2023-11-18T00:51:44;6.53;;;2.97;;
37971;SDS011;23794;48.234;8.344;2023-11-18T00:54:10;6.82;;;2.65;;
37971;SDS011;23794;48.234;8.344;2023-11-18T00:56:38;23.98;;;6.13;;
37971;SDS011;23794;48.234;8.344;2023-11-18T00:59:06;62.80;;;8.00;;
37971;SDS011;23794;48.234;8.344;2023-11-18T01:01:33;65.20;;;7.70;;
37971;SDS011;23794;48.234;8.344;2023-11-18T01:04:01;43.45;;;7.00;;
37971;SDS011;23794;48.234;8.344;2023-11-18T01:06:28;132.07;;;11.50;;
37971;SDS011;23794;48.234;8.344;2023-11-18T01:08:56;165.23;;;13.05;;
37971;SDS011;23794;48.234;8.344;2023-11-18T01:11:22;424.63;;;28.20;;
37971;SDS011;23794;48.234;8.344;2023-11-18T01:13:49;208.93;;;13.95;;
37971;SDS011;23794;48.234;8.344;2023-11-18T01:16:16;256.15;;;16.55;;
37971;SDS011;23794;48.234;8.344;2023-11-18T01:18:43;75.07;;;6.63;;
37971;SDS011;23794;48.234;8.344;2023-11-18T01:21:11;115.57;;;9.00;;
37971;SDS011;23794;48.234;8.344;2023-11-18T01:23:38;86.60;;;8.23;;
37971;SDS011;23794;48.234;8.344;2023-11-18T01:26:09;26.42;;;5.18;;
37971;SDS011;23794;48.234;8.344;2023-11-18T01:28:38;14.88;;;4.25;;
37971;SDS011;23794;48.234;8.344;2023-11-18T01:31:09;9.45;;;4.43;;
37971;SDS011;23794;48.234;8.344;2023-11-18T01:33:40;5.80;;;4.00;;
37971;SDS011;23794;48.234;8.344;2023-11-18T01:36:08;9.32;;;2.70;;
37971;SDS011;23794;48.234;8.344;2023-11-18T01:38:36;5.03;;;3.45;;
37971;SDS011;23794;48.234;8.344;2023-11-18T01:41:06;4.10;;;2.72;;
37971;SDS011;23794;48.234;8.344;2023-11-18T01:43:33;2.92;;;1.95;;
37971;SDS011;23794;48.234;8.344;2023-11-18T01:46:04;5.05;;;2.83;;
37971;SDS011;23794;48.234;8.344;2023-11-18T01:48:37;4.03;;;2.92;;
37971;SDS011;23794;48.234;8.344;2023-11-18T01:51:05;5.53;;;3.53;;
37971;SDS011;23794;48.234;8.344;2023-11-18T01:53:34;4.60;;;3.10;;
37971;SDS011;23794;48.234;8.344;2023-11-18T01:56:06;12.35;;;4.32;;
37971;SDS011;23794;48.234;8.344;2023-11-18T01:58:35;84.20;;;8.15;;
37971;SDS011;23794;48.234;8.344;2023-11-18T02:01:03;124.57;;;9.52;;
37971;SDS011;23794;48.234;8.344;2023-11-18T02:06:02;254.48;;;15.40;;
37971;SDS011;23794;48.234;8.344;2023-11-18T02:08:32;172.27;;;10.93;;
37971;SDS011;23794;48.234;8.344;2023-11-18T02:11:03;167.18;;;10.50;;
37971;SDS011;23794;48.234;8.344;2023-11-18T02:13:40;119.03;;;7.32;;
37971;SDS011;23794;48.234;8.344;2023-11-18T02:16:12;167.82;;;9.63;;
37971;SDS011;23794;48.234;8.344;2023-11-18T02:18:42;124.18;;;7.82;;
37971;SDS011;23794;48.234;8.344;2023-11-18T02:21:09;75.85;;;5.20;;
37971;SDS011;23794;48.234;8.344;2023-11-18T02:23:37;118.75;;;9.25;;
37971;SDS011;23794;48.234;8.344;2023-11-18T02:26:04;91.45;;;7.70;;
37971;SDS011;23794;48.234;8.344;2023-11-18T02:28:32;20.40;;;3.33;;
37971;SDS011;23794;48.234;8.344;2023-11-18T02:31:02;2.70;;;1.40;;
37971;SDS011;23794;48.234;8.344;2023-11-18T02:33:41;6.78;;;1.77;;
37971;SDS011;23794;48.234;8.344;2023-11-18T02:36:35;3.85;;;1.75;;
37971;SDS011;23794;48.234;8.344;2023-11-18T02:39:06;3.10;;;1.67;;
37971;SDS011;23794;48.234;8.344;2023-11-18T02:41:38;3.25;;;2.00;;
37971;SDS011;23794;48.234;8.344;2023-11-18T02:44:06;4.32;;;2.20;;
37971;SDS011;23794;48.234;8.344;2023-11-18T02:46:37;6.10;;;1.60;;
37971;SDS011;23794;48.234;8.344;2023-11-18T02:49:05;8.68;;;1.80;;
37971;SDS011;23794;48.234;8.344;2023-11-18T02:51:32;11.07;;;1.98;;
37971;SDS011;23794;48.234;8.344;2023-11-18T02:54:05;3.92;;;1.98;;
37971;SDS011;23794;48.234;8.344;2023-11-18T02:56:33;55.55;;;4.15;;
37971;SDS011;23794;48.234;8.344;2023-11-18T02:58:59;54.38;;;5.32;;
37971;SDS011;23794;48.234;8.344;2023-11-18T03:01:27;9.63;;;2.20;;
37971;SDS011;23794;48.234;8.344;2023-11-18T03:03:54;4.00;;;1.30;;
37971;SDS011;23794;48.234;8.344;2023-11-18T03:06:22;26.25;;;2.75;;
37971;SDS011;23794;48.234;8.344;2023-11-18T03:08:48;5.20;;;2.45;;
37971;SDS011;23794;48.234;8.344;2023-11-18T03:11:15;4.20;;;1.40;;
37971;SDS011;23794;48.234;8.344;2023-11-18T03:13:43;4.15;;;1.45;;
37971;SDS011;23794;48.234;8.344;2023-11-18T03:16:10;2.40;;;1.50;;
37971;SDS011;23794;48.234;8.344;2023-11-18T03:18:39;11.52;;;2.08;;
37971;SDS011;23794;48.234;8.344;2023-11-18T03:21:12;14.95;;;1.90;;
37971;SDS011;23794;48.234;8.344;2023-11-18T03:23:39;13.00;;;2.60;;
37971;SDS011;23794;48.234;8.344;2023-11-18T03:26:07;8.55;;;2.00;;
37971;SDS011;23794;48.234;8.344;2023-11-18T03:28:35;77.50;;;5.93;;
37971;SDS011;23794;48.234;8.344;2023-11-18T03:31:03;3.95;;;1.48;;
37971;SDS011;23794;48.234;8.344;2023-11-18T03:33:31;19.00;;;3.05;;
37971;SDS011;23794;48.234;8.344;2023-11-18T03:35:58;8.20;;;1.70;;
37971;SDS011;23794;48.234;8.344;2023-11-18T03:38:25;7.28;;;1.73;;
37971;SDS011;23794;48.234;8.344;2023-11-18T03:40:54;9.00;;;2.20;;
37971;SDS011;23794;48.234;8.344;2023-11-18T03:43:22;38.90;;;3.45;;
37971;SDS011;23794;48.234;8.344;2023-11-18T03:45:48;48.03;;;5.32;;
37971;SDS011;23794;48.234;8.344;2023-11-18T03:48:15;13.07;;;2.38;;
37971;SDS011;23794;48.234;8.344;2023-11-18T03:50:43;11.07;;;2.30;;
37971;SDS011;23794;48.234;8.344;2023-11-18T03:53:10;2.75;;;2.00;;
37971;SDS011;23794;48.234;8.344;2023-11-18T03:55:37;8.05;;;1.90;;
37971;SDS011;23794;48.234;8.344;2023-11-18T03:58:04;3.22;;;1.95;;
37971;SDS011;23794;48.234;8.344;2023-11-18T04:00:31;3.67;;;2.42;;
37971;SDS011;23794;48.234;8.344;2023-11-18T04:02:59;12.02;;;3.53;;
37971;SDS011;23794;48.234;8.344;2023-11-18T04:05:26;4.43;;;2.47;;
37971;SDS011;23794;48.234;8.344;2023-11-18T04:07:53;8.48;;;2.50;;
37971;SDS011;23794;48.234;8.344;2023-11-18T04:10:19;8.02;;;2.40;;
37971;SDS011;23794;48.234;8.344;2023-11-18T04:12:47;24.05;;;3.28;;
37971;SDS011;23794;48.234;8.344;2023-11-18T04:15:15;43.88;;;3.83;;
37971;SDS011;23794;48.234;8.344;2023-11-18T04:17:42;43.97;;;3.95;;
37971;SDS011;23794;48.234;8.344;2023-11-18T04:20:10;16.30;;;2.97;;
37971;SDS011;23794;48.234;8.344;2023-11-18T04:22:39;14.73;;;3.15;;
37971;SDS011;23794;48.234;8.344;2023-11-18T04:25:11;23.98;;;3.13;;
37971;SDS011;23794;48.234;8.344;2023-11-18T04:27:38;13.20;;;3.30;;
37971;SDS011;23794;48.234;8.344;2023-11-18T04:30:08;11.30;;;3.95;;
37971;SDS011;23794;48.234;8.344;2023-11-18T04:32:35;31.55;;;3.38;;
37971;SDS011;23794;48.234;8.344;2023-11-18T04:35:02;16.17;;;2.50;;
37971;SDS011;23794;48.234;8.344;2023-11-18T04:37:36;23.23;;;2.90;;
37971;SDS011;23794;48.234;8.344;2023-11-18T04:40:06;22.40;;;2.77;;
37971;SDS011;23794;48.234;8.344;2023-11-18T04:42:39;11.70;;;2.10;;
37971;SDS011;23794;48.234;8.344;2023-11-18T04:45:06;25.55;;;3.17;;
37971;SDS011;23794;48.234;8.344;2023-11-18T04:47:36;15.05;;;1.95;;
37971;SDS011;23794;48.234;8.344;2023-11-18T04:50:04;6.18;;;1.92;;
37971;SDS011;23794;48.234;8.344;2023-11-18T04:52:31;6.47;;;1.85;;
37971;SDS011;23794;48.234;8.344;2023-11-18T04:55:01;2.53;;;0.95;;
37971;SDS011;23794;48.234;8.344;2023-11-18T04:57:29;2.25;;;1.08;;
37971;SDS011;23794;48.234;8.344;2023-11-18T04:59:56;3.58;;;1.15;;
37971;SDS011;23794;48.234;8.344;2023-11-18T05:02:23;1.83;;;1.27;;
37971;SDS011;23794;48.234;8.344;2023-11-18T05:04:49;0.50;;;0.40;;
37971;SDS011;23794;48.234;8.344;2023-11-18T05:07:17;2.80;;;0.50;;
37971;SDS011;23794;48.234;8.344;2023-11-18T05:09:43;2.97;;;0.85;;
37971;SDS011;23794;48.234;8.344;2023-11-18T05:12:10;2.30;;;1.42;;
37971;SDS011;23794;48.234;8.344;2023-11-18T05:14:37;2.47;;;1.55;;
37971;SDS011;23794;48.234;8.344;2023-11-18T05:17:04;4.38;;;1.27;;
37971;SDS011;23794;48.234;8.344;2023-11-18T05:19:32;3.28;;;0.77;;
37971;SDS011;23794;48.234;8.344;2023-11-18T05:21:58;2.55;;;0.98;;
37971;SDS011;23794;48.234;8.344;2023-11-18T05:24:26;2.58;;;0.95;;
37971;SDS011;23794;48.234;8.344;2023-11-18T05:26:53;2.20;;;0.70;;
37971;SDS011;23794;48.234;8.344;2023-11-18T05:29:20;2.63;;;0.82;;
37971;SDS011;23794;48.234;8.344;2023-11-18T05:31:47;3.92;;;1.50;;
37971;SDS011;23794;48.234;8.344;2023-11-18T05:34:14;1.48;;;0.80;;
37971;SDS011;23794;48.234;8.344;2023-11-18T05:36:41;1.58;;;0.90;;
37971;SDS011;23794;48.234;8.344;2023-11-18T05:39:08;4.03;;;1.92;;
37971;SDS011;23794;48.234;8.344;2023-11-18T05:41:37;3.30;;;1.67;;
37971;SDS011;23794;48.234;8.344;2023-11-18T05:44:06;5.78;;;1.38;;
37971;SDS011;23794;48.234;8.344;2023-11-18T05:46:36;5.65;;;1.50;;
37971;SDS011;23794;48.234;8.344;2023-11-18T05:49:04;2.47;;;1.30;;
37971;SDS011;23794;48.234;8.344;2023-11-18T05:51:34;4.65;;;2.20;;
37971;SDS011;23794;48.234;8.344;2023-11-18T05:54:02;5.70;;;2.65;;
37971;SDS011;23794;48.234;8.344;2023-11-18T05:56:28;2.15;;;1.45;;
37971;SDS011;23794;48.234;8.344;2023-11-18T05:58:55;3.72;;;2.10;;
37971;SDS011;23794;48.234;8.344;2023-11-18T06:01:22;5.80;;;1.42;;
37971;SDS011;23794;48.234;8.344;2023-11-18T06:03:50;1.33;;;0.75;;
37971;SDS011;23794;48.234;8.344;2023-11-18T06:06:18;3.83;;;2.20;;
37971;SDS011;23794;48.234;8.344;2023-11-18T06:11:16;2.33;;;1.30;;
37971;SDS011;23794;48.234;8.344;2023-11-18T06:13:46;5.57;;;1.65;;
37971;SDS011;23794;48.234;8.344;2023-11-18T06:16:18;2.05;;;1.30;;
37971;SDS011;23794;48.234;8.344;2023-11-18T06:18:48;2.13;;;1.20;;
37971;SDS011;23794;48.234;8.344;2023-11-18T06:21:26;2.03;;;1.30;;
37971;SDS011;23794;48.234;8.344;2023-11-18T06:23:57;1.77;;;0.93;;
37971;SDS011;23794;48.234;8.344;2023-11-18T06:26:26;1.88;;;1.23;;
37971;SDS011;23794;48.234;8.344;2023-11-18T06:28:54;2.42;;;1.05;;
37971;SDS011;23794;48.234;8.344;2023-11-18T06:31:22;3.92;;;1.40;;
37971;SDS011;23794;48.234;8.344;2023-11-18T06:33:50;2.33;;;1.42;;
37971;SDS011;23794;48.234;8.344;2023-11-18T06:36:19;1.98;;;1.58;;
37971;SDS011;23794;48.234;8.344;2023-11-18T06:38:50;1.80;;;1.27;;
37971;SDS011;23794;48.234;8.344;2023-11-18T06:41:18;2.90;;;1.38;;
37971;SDS011;23794;48.234;8.344;2023-11-18T06:43:50;2.35;;;1.50;;
37971;SDS011;23794;48.234;8.344;2023-11-18T06:46:30;2.13;;;1.48;;
37971;SDS011;23794;48.234;8.344;2023-11-18T06:49:01;5.95;;;1.83;;
37971;SDS011;23794;48.234;8.344;2023-11-18T06:51:31;5.68;;;2.67;;
37971;SDS011;23794;48.234;8.344;2023-11-18T06:54:02;7.78;;;2.72;;
37971;SDS011;23794;48.234;8.344;2023-11-18T06:56:35;2.80;;;2.10;;
37971;SDS011;23794;48.234;8.344;2023-11-18T06:59:12;3.25;;;1.67;;
37971;SDS011;23794;48.234;8.344;2023-11-18T07:01:42;3.15;;;2.25;;
37971;SDS011;23794;48.234;8.344;2023-11-18T07:04:11;5.40;;;2.15;;
37971;SDS011;23794;48.234;8.344;2023-11-18T07:06:38;3.53;;;1.63;;
37971;SDS011;23794;48.234;8.344;2023-11-18T07:09:05;4.85;;;2.10;;
37971;SDS011;23794;48.234;8.344;2023-11-18T07:11:40;2.90;;;1.90;;
37971;SDS011;23794;48.234;8.344;2023-11-18T07:14:10;4.88;;;1.98;;
37971;SDS011;23794;48.234;8.344;2023-11-18T07:16:38;2.60;;;1.60;;
37971;SDS011;23794;48.234;8.344;2023-11-18T07:19:07;2.95;;;1.60;;
37971;SDS011;23794;48.234;8.344;2023-11-18T07:21:34;3.83;;;1.80;;
37971;SDS011;23794;48.234;8.344;2023-11-18T07:24:01;2.95;;;1.60;;
37971;SDS011;23794;48.234;8.344;2023-11-18T07:26:31;3.90;;;2.10;;
37971;SDS011;23794;48.234;8.344;2023-11-18T07:28:57;8.25;;;2.30;;
37971;SDS011;23794;48.234;8.344;2023-11-18T07:31:24;3.20;;;1.65;;
37971;SDS011;23794;48.234;8.344;2023-11-18T07:33:51;4.63;;;2.25;;
37971;SDS011;23794;48.234;8.344;2023-11-18T07:36:18;2.83;;;1.90;;
37971;SDS011;23794;48.234;8.344;2023-11-18T07:38:48;3.85;;;1.50;;
37971;SDS011;23794;48.234;8.344;2023-11-18T07:41:16;4.35;;;2.35;;
37971;SDS011;23794;48.234;8.344;2023-11-18T07:43:58;8.40;;;2.40;;
37971;SDS011;23794;48.234;8.344;2023-11-18T07:46:25;6.38;;;3.35;;
37971;SDS011;23794;48.234;8.344;2023-11-18T07:48:52;7.25;;;2.92;;
37971;SDS011;23794;48.234;8.344;2023-11-18T07:51:20;2.72;;;2.00;;
37971;SDS011;23794;48.234;8.344;2023-11-18T07:53:48;6.43;;;2.22;;
37971;SDS011;23794;48.234;8.344;2023-11-18T07:56:15;3.13;;;2.20;;
37971;SDS011;23794;48.234;8.344;2023-11-18T07:58:45;7.10;;;2.83;;
37971;SDS011;23794;48.234;8.344;2023-11-18T08:01:19;6.40;;;2.80;;
37971;SDS011;23794;48.234;8.344;2023-11-18T08:03:47;6.80;;;4.07;;
37971;SDS011;23794;48.234;8.344;2023-11-18T08:06:14;5.30;;;1.95;;
37971;SDS011;23794;48.234;8.344;2023-11-18T08:08:41;8.35;;;3.60;;
37971;SDS011;23794;48.234;8.344;2023-11-18T08:11:11;7.53;;;3.22;;
37971;SDS011;23794;48.234;8.344;2023-11-18T08:13:41;8.45;;;3.67;;
37971;SDS011;23794;48.234;8.344;2023-11-18T08:16:08;6.57;;;3.00;;
37971;SDS011;23794;48.234;8.344;2023-11-18T08:18:35;7.60;;;2.53;;
37971;SDS011;23794;48.234;8.344;2023-11-18T08:21:03;9.57;;;3.22;;
37971;SDS011;23794;48.234;8.344;2023-11-18T08:23:33;8.50;;;3.45;;
37971;SDS011;23794;48.234;8.344;2023-11-18T08:26:00;10.13;;;3.63;;
37971;SDS011;23794;48.234;8.344;2023-11-18T08:28:27;7.90;;;3.08;;
37971;SDS011;23794;48.234;8.344;2023-11-18T08:30:54;5.65;;;2.42;;
37971;SDS011;23794;48.234;8.344;2023-11-18T08:33:21;13.07;;;4.07;;
37971;SDS011;23794;48.234;8.344;2023-11-18T08:35:50;8.07;;;3.88;;
37971;SDS011;23794;48.234;8.344;2023-11-18T08:38:17;10.20;;;4.38;;
37971;SDS011;23794;48.234;8.344;2023-11-18T08:40:44;14.55;;;4.72;;
37971;SDS011;23794;48.234;8.344;2023-11-18T08:43:15;6.72;;;3.35;;
37971;SDS011;23794;48.234;8.344;2023-11-18T08:45:43;6.35;;;3.20;;
37971;SDS011;23794;48.234;8.344;2023-11-18T08:48:10;12.88;;;4.32;;
37971;SDS011;23794;48.234;8.344;2023-11-18T08:50:37;6.80;;;2.90;;
37971;SDS011;23794;48.234;8.344;2023-11-18T08:53:07;6.72;;;2.80;;
37971;SDS011;23794;48.234;8.344;2023-11-18T08:55:37;18.08;;;6.13;;
37971;SDS011;23794;48.234;8.344;2023-11-18T08:58:12;39.30;;;9.43;;
37971;SDS011;23794;48.234;8.344;2023-11-18T09:00:47;27.75;;;7.90;;
37971;SDS011;23794;48.234;8.344;2023-11-18T09:03:22;117.80;;;19.70;;
37971;SDS011;23794;48.234;8.344;2023-11-18T09:05:52;62.75;;;13.52;;
37971;SDS011;23794;48.234;8.344;2023-11-18T09:08:37;39.33;;;10.73;;
37971;SDS011;23794;48.234;8.344;2023-11-18T09:11:10;39.72;;;9.48;;
37971;SDS011;23794;48.234;8.344;2023-11-18T09:13:41;41.10;;;12.43;;
37971;SDS011;23794;48.234;8.344;2023-11-18T09:16:11;19.23;;;9.13;;
37971;SDS011;23794;48.234;8.344;2023-11-18T09:18:39;31.73;;;9.88;;
37971;SDS011;23794;48.234;8.344;2023-11-18T09:21:09;26.67;;;11.85;;
37971;SDS011;23794;48.234;8.344;2023-11-18T09:23:42;26.02;;;14.57;;
37971;SDS011;23794;48.234;8.344;2023-11-18T09:26:11;23.92;;;13.80;;
37971;SDS011;23794;48.234;8.344;2023-11-18T09:28:38;28.98;;;17.40;;
37971;SDS011;23794;48.234;8.344;2023-11-18T09:31:05;31.75;;;22.73;;
37971;SDS011;23794;48.234;8.344;2023-11-18T09:33:38;27.10;;;18.13;;
37971;SDS011;23794;48.234;8.344;2023-11-18T09:36:07;28.48;;;16.77;;
37971;SDS011;23794;48.234;8.344;2023-11-18T09:38:35;25.65;;;15.70;;
37971;SDS011;23794;48.234;8.344;2023-11-18T09:41:03;22.67;;;12.88;;
37971;SDS011;23794;48.234;8.344;2023-11-18T09:43:33;68.25;;;21.05;;
37971;SDS011;23794;48.234;8.344;2023-11-18T09:46:10;71.47;;;20.17;;
37971;SDS011;23794;48.234;8.344;2023-11-18T09:51:23;28.52;;;10.43;;
37971;SDS011;23794;48.234;8.344;2023-11-18T09:53:51;15.60;;;9.07;;
37971;SDS011;23794;48.234;8.344;2023-11-18T09:56:27;26.75;;;10.40;;
37971;SDS011;23794;48.234;8.344;2023-11-18T10:02:02;13.32;;;6.80;;
37971;SDS011;23794;48.234;8.344;2023-11-18T10:04:33;27.33;;;10.02;;
37971;SDS011;23794;48.234;8.344;2023-11-18T10:07:01;19.63;;;7.70;;
37971;SDS011;23794;48.234;8.344;2023-11-18T10:09:29;18.23;;;6.88;;
37971;SDS011;23794;48.234;8.344;2023-11-18T10:12:03;15.45;;;6.35;;
37971;SDS011;23794;48.234;8.344;2023-11-18T10:14:33;9.63;;;5.30;;
37971;SDS011;23794;48.234;8.344;2023-11-18T10:17:07;10.77;;;5.75;;
37971;SDS011;23794;48.234;8.344;2023-11-18T10:22:24;7.82;;;4.70;;
37971;SDS011;23794;48.234;8.344;2023-11-18T10:27:29;15.88;;;5.95;;
37971;SDS011;23794;48.234;8.344;2023-11-18T10:29:56;18.90;;;6.07;;
37971;SDS011;23794;48.234;8.344;2023-11-18T10:32:25;23.67;;;6.07;;
37971;SDS011;23794;48.234;8.344;2023-11-18T10:34:56;20.40;;;6.47;;
37971;SDS011;23794;48.234;8.344;2023-11-18T10:37:27;25.58;;;6.40;;
37971;SDS011;23794;48.234;8.344;2023-11-18T10:40:03;31.63;;;8.27;;
37971;SDS011;23794;48.234;8.344;2023-11-18T10:42:31;27.65;;;7.82;;
37971;SDS011;23794;48.234;8.344;2023-11-18T10:44:59;17.80;;;6.80;;
37971;SDS011;23794;48.234;8.344;2023-11-18T10:47:33;20.27;;;7.57;;
37971;SDS011;23794;48.234;8.344;2023-11-18T10:50:08;8.20;;;4.53;;
37971;SDS011;23794;48.234;8.344;2023-11-18T10:52:37;13.05;;;5.30;;
37971;SDS011;23794;48.234;8.344;2023-11-18T10:55:08;11.52;;;4.93;;
37971;SDS011;23794;48.234;8.344;2023-11-18T10:57:39;7.95;;;4.95;;
37971;SDS011;23794;48.234;8.344;2023-11-18T11:00:09;6.57;;;5.03;;
37971;SDS011;23794;48.234;8.344;2023-11-18T11:02:46;22.20;;;6.85;;
37971;SDS011;23794;48.234;8.344;2023-11-18T11:05:38;29.00;;;6.15;;
37971;SDS011;23794;48.234;8.344;2023-11-18T11:08:08;13.32;;;5.78;;
37971;SDS011;23794;48.234;8.344;2023-11-18T11:10:43;6.75;;;4.25;;
37971;SDS011;23794;48.234;8.344;2023-11-18T11:13:10;7.80;;;4.40;;
37971;SDS011;23794;48.234;8.344;2023-11-18T11:15:40;5.65;;;2.83;;
37971;SDS011;23794;48.234;8.344;2023-11-18T11:18:23;5.22;;;3.85;;
37971;SDS011;23794;48.234;8.344;2023-11-18T11:23:33;8.07;;;4.20;;
37971;SDS011;23794;48.234;8.344;2023-11-18T11:34:40;9.85;;;4.47;;
37971;SDS011;23794;48.234;8.344;2023-11-18T11:37:11;8.98;;;4.00;;
37971;SDS011;23794;48.234;8.344;2023-11-18T11:39:41;7.53;;;4.05;;
37971;SDS011;23794;48.234;8.344;2023-11-18T11:42:13;9.38;;;4.75;;
37971;SDS011;23794;48.234;8.344;2023-11-18T11:44:44;7.18;;;3.88;;
37971;SDS011;23794;48.234;8.344;2023-11-18T11:47:12;7.93;;;4.22;;
37971;SDS011;23794;48.234;8.344;2023-11-18T11:49:57;6.70;;;3.45;;
37971;SDS011;23794;48.234;8.344;2023-11-18T11:52:28;3.67;;;2.75;;
37971;SDS011;23794;48.234;8.344;2023-11-18T11:55:02;5.53;;;3.85;;
37971;SDS011;23794;48.234;8.344;2023-11-18T11:57:39;4.78;;;3.75;;
37971;SDS011;23794;48.234;8.344;2023-11-18T12:00:09;5.10;;;3.00;;
37971;SDS011;23794;48.234;8.344;2023-11-18T12:02:52;3.78;;;2.20;;
37971;SDS011;23794;48.234;8.344;2023-11-18T12:05:25;3.50;;;1.70;;
37971;SDS011;23794;48.234;8.344;2023-11-18T12:07:53;4.40;;;1.60;;
37971;SDS011;23794;48.234;8.344;2023-11-18T12:10:26;4.97;;;1.80;;
37971;SDS011;23794;48.234;8.344;2023-11-18T12:13:10;3.05;;;1.60;;
37971;SDS011;23794;48.234;8.344;2023-11-18T12:18:25;2.47;;;1.70;;
37971;SDS011;23794;48.234;8.344;2023-11-18T12:20:52;6.63;;;2.00;;
37971;SDS011;23794;48.234;8.344;2023-11-18T12:23:24;6.95;;;2.15;;
37971;SDS011;23794;48.234;8.344;2023-11-18T12:25:51;4.47;;;2.15;;
37971;SDS011;23794;48.234;8.344;2023-11-18T12:28:30;3.10;;;1.40;;
37971;SDS011;23794;48.234;8.344;2023-11-18T12:31:01;4.20;;;2.05;;
37971;SDS011;23794;48.234;8.344;2023-11-18T12:41:36;3.72;;;1.73;;
37971;SDS011;23794;48.234;8.344;2023-11-18T12:49:16;9.40;;;3.05;;
37971;SDS011;23794;48.234;8.344;2023-11-18T12:51:50;5.68;;;2.83;;
37971;SDS011;23794;48.234;8.344;2023-11-18T12:54:19;5.95;;;2.30;;
37971;SDS011;23794;48.234;8.344;2023-11-18T12:56:50;5.60;;;2.22;;
37971;SDS011;23794;48.234;8.344;2023-11-18T12:59:20;5.75;;;1.92;;
37971;SDS011;23794;48.234;8.344;2023-11-18T13:01:47;4.97;;;1.63;;
37971;SDS011;23794;48.234;8.344;2023-11-18T13:04:20;7.07;;;2.25;;
37971;SDS011;23794;48.234;8.344;2023-11-18T13:06:47;5.63;;;1.67;;
37971;SDS011;23794;48.234;8.344;2023-11-18T13:09:15;4.88;;;1.98;;
37971;SDS011;23794;48.234;8.344;2023-11-18T13:11:52;4.35;;;1.60;;
37971;SDS011;23794;48.234;8.344;2023-11-18T13:14:27;4.28;;;1.50;;
37971;SDS011;23794;48.234;8.344;2023-11-18T13:16:56;4.60;;;1.40;;
37971;SDS011;23794;48.234;8.344;2023-11-18T13:19:26;3.38;;;1.33;;
37971;SDS011;23794;48.234;8.344;2023-11-18T13:21:58;2.40;;;1.75;;
37971;SDS011;23794;48.234;8.344;2023-11-18T13:24:28;3.75;;;1.58;;
37971;SDS011;23794;48.234;8.344;2023-11-18T13:26:56;2.17;;;1.30;;
37971;SDS011;23794;48.234;8.344;2023-11-18T13:29:24;3.17;;;1.75;;
37971;SDS011;23794;48.234;8.344;2023-11-18T13:31:51;2.60;;;1.50;;
37971;SDS011;23794;48.234;8.344;2023-11-18T13:34:18;2.30;;;1.45;;
37971;SDS011;23794;48.234;8.344;2023-11-18T13:36:47;4.93;;;2.50;;
37971;SDS011;23794;48.234;8.344;2023-11-18T13:39:18;3.92;;;2.00;;
37971;SDS011;23794;48.234;8.344;2023-11-18T13:41:49;3.17;;;1.35;;
37971;SDS011;23794;48.234;8.344;2023-11-18T13:44:32;2.80;;;1.40;;
37971;SDS011;23794;48.234;8.344;2023-11-18T13:47:09;3.00;;;1.97;;
37971;SDS011;23794;48.234;8.344;2023-11-18T13:49:38;2.58;;;1.42;;
37971;SDS011;23794;48.234;8.344;2023-11-18T13:52:09;3.50;;;1.45;;
37971;SDS011;23794;48.234;8.344;2023-11-18T13:54:42;2.33;;;1.52;;
37971;SDS011;23794;48.234;8.344;2023-11-18T13:57:12;2.85;;;1.55;;
37971;SDS011;23794;48.234;8.344;2023-11-18T13:59:39;2.90;;;1.60;;
37971;SDS011;23794;48.234;8.344;2023-11-18T14:02:06;2.00;;;1.00;;
37971;SDS011;23794;48.234;8.344;2023-11-18T14:04:35;3.13;;;1.50;;
37971;SDS011;23794;48.234;8.344;2023-11-18T14:07:03;2.42;;;1.52;;
37971;SDS011;23794;48.234;8.344;2023-11-18T14:09:35;2.60;;;1.27;;
37971;SDS011;23794;48.234;8.344;2023-11-18T14:12:03;6.30;;;2.03;;
37971;SDS011;23794;48.234;8.344;2023-11-18T14:14:33;3.53;;;1.52;;
37971;SDS011;23794;48.234;8.344;2023-11-18T14:17:00;4.68;;;1.55;;
37971;SDS011;23794;48.234;8.344;2023-11-18T14:19:30;5.50;;;1.52;;
37971;SDS011;23794;48.234;8.344;2023-11-18T14:21:57;4.07;;;1.40;;
37971;SDS011;23794;48.234;8.344;2023-11-18T14:24:24;1.58;;;1.00;;
37971;SDS011;23794;48.234;8.344;2023-11-18T14:26:54;2.40;;;1.30;;
37971;SDS011;23794;48.234;8.344;2023-11-18T14:29:23;2.83;;;1.23;;
37971;SDS011;23794;48.234;8.344;2023-11-18T14:31:54;2.35;;;1.35;;
37971;SDS011;23794;48.234;8.344;2023-11-18T14:34:21;3.70;;;1.30;;
37971;SDS011;23794;48.234;8.344;2023-11-18T14:36:48;1.90;;;1.25;;
37971;SDS011;23794;48.234;8.344;2023-11-18T14:39:15;3.53;;;1.38;;
37971;SDS011;23794;48.234;8.344;2023-11-18T14:41:45;1.90;;;1.30;;
37971;SDS011;23794;48.234;8.344;2023-11-18T14:44:12;3.00;;;1.50;;
37971;SDS011;23794;48.234;8.344;2023-11-18T14:46:39;4.57;;;1.17;;
37971;SDS011;23794;48.234;8.344;2023-11-18T14:49:07;2.00;;;1.30;;
37971;SDS011;23794;48.234;8.344;2023-11-18T14:51:36;2.08;;;1.30;;
37971;SDS011;23794;48.234;8.344;2023-11-18T14:54:04;2.67;;;1.65;;
37971;SDS011;23794;48.234;8.344;2023-11-18T14:56:35;2.78;;;2.05;;
37971;SDS011;23794;48.234;8.344;2023-11-18T14:59:03;3.20;;;1.58;;
37971;SDS011;23794;48.234;8.344;2023-11-18T15:01:32;3.92;;;2.35;;
37971;SDS011;23794;48.234;8.344;2023-11-18T15:03:59;3.78;;;1.60;;
37971;SDS011;23794;48.234;8.344;2023-11-18T15:06:26;3.03;;;1.55;;
37971;SDS011;23794;48.234;8.344;2023-11-18T15:08:54;3.33;;;1.75;;
37971;SDS011;23794;48.234;8.344;2023-11-18T15:11:23;2.40;;;1.63;;
37971;SDS011;23794;48.234;8.344;2023-11-18T15:13:51;2.95;;;1.60;;
37971;SDS011;23794;48.234;8.344;2023-11-18T15:16:20;2.60;;;1.80;;
37971;SDS011;23794;48.234;8.344;2023-11-18T15:18:47;3.90;;;2.00;;
37971;SDS011;23794;48.234;8.344;2023-11-18T15:21:14;2.00;;;1.60;;
37971;SDS011;23794;48.234;8.344;2023-11-18T15:23:42;2.63;;;1.52;;
37971;SDS011;23794;48.234;8.344;2023-11-18T15:26:08;5.97;;;2.10;;
37971;SDS011;23794;48.234;8.344;2023-11-18T15:28:36;3.95;;;1.90;;
37971;SDS011;23794;48.234;8.344;2023-11-18T15:31:03;5.63;;;2.53;;
37971;SDS011;23794;48.234;8.344;2023-11-18T15:33:31;5.15;;;2.28;;
37971;SDS011;23794;48.234;8.344;2023-11-18T15:35:58;2.35;;;1.70;;
37971;SDS011;23794;48.234;8.344;2023-11-18T15:38:25;3.20;;;1.90;;